sensor_id;sensor_type;location;lat;lon;timestamp;temperature;humidity
18753;DHT22;9505;50.882;5.350;2023-07-31T00:01:43;17.10;99.90
18753;DHT22;9505;50.882;5.350;2023-07-31T00:04:09;17.10;99.90
18753;DHT22;9505;50.882;5.350;2023-07-31T00:06:34;17.10;99.90
18753;DHT22;9505;50.882;5.350;2023-07-31T00:09:00;17.00;99.90
18753;DHT22;9505;50.882;5.350;2023-07-31T00:11:25;17.00;99.90
18753;DHT22;9505;50.882;5.350;2023-07-31T00:13:53;16.90;99.90
18753;DHT22;9505;50.882;5.350;2023-07-31T00:16:19;16.90;99.90
18753;DHT22;9505;50.882;5.350;2023-07-31T00:18:45;17.00;99.90
18753;DHT22;9505;50.882;5.350;2023-07-31T00:21:10;16.90;99.90
18753;DHT22;9505;50.882;5.350;2023-07-31T00:23:36;17.00;99.90
18753;DHT22;9505;50.882;5.350;2023-07-31T00:26:01;17.00;99.90
18753;DHT22;9505;50.882;5.350;2023-07-31T00:28:27;17.00;99.90
18753;DHT22;9505;50.882;5.350;2023-07-31T00:30:54;17.00;99.90
18753;DHT22;9505;50.882;5.350;2023-07-31T00:33:19;17.10;99.90
18753;DHT22;9505;50.882;5.350;2023-07-31T00:35:45;17.00;99.90
18753;DHT22;9505;50.882;5.350;2023-07-31T00:38:11;16.90;99.90
18753;DHT22;9505;50.882;5.350;2023-07-31T00:40:37;16.90;99.90
18753;DHT22;9505;50.882;5.350;2023-07-31T00:43:03;16.90;99.90
18753;DHT22;9505;50.882;5.350;2023-07-31T00:45:29;16.90;99.90
18753;DHT22;9505;50.882;5.350;2023-07-31T00:47:55;16.90;99.90
18753;DHT22;9505;50.882;5.350;2023-07-31T00:50:24;17.00;99.90
18753;DHT22;9505;50.882;5.350;2023-07-31T00:52:49;17.10;99.90
18753;DHT22;9505;50.882;5.350;2023-07-31T00:55:15;17.10;99.90
18753;DHT22;9505;50.882;5.350;2023-07-31T00:57:41;17.20;99.90
18753;DHT22;9505;50.882;5.350;2023-07-31T01:00:08;17.30;99.90
18753;DHT22;9505;50.882;5.350;2023-07-31T01:02:35;17.30;99.90
18753;DHT22;9505;50.882;5.350;2023-07-31T01:05:02;17.20;99.90
18753;DHT22;9505;50.882;5.350;2023-07-31T01:07:35;17.20;99.90
18753;DHT22;9505;50.882;5.350;2023-07-31T01:10:15;17.30;99.90
18753;DHT22;9505;50.882;5.350;2023-07-31T01:12:42;17.30;99.90
18753;DHT22;9505;50.882;5.350;2023-07-31T01:15:09;17.40;99.90
18753;DHT22;9505;50.882;5.350;2023-07-31T01:17:43;17.40;99.90
18753;DHT22;9505;50.882;5.350;2023-07-31T01:20:32;17.40;99.90
18753;DHT22;9505;50.882;5.350;2023-07-31T01:26:05;17.40;99.90
18753;DHT22;9505;50.882;5.350;2023-07-31T01:28:55;17.40;99.90
18753;DHT22;9505;50.882;5.350;2023-07-31T01:31:25;17.50;99.90
18753;DHT22;9505;50.882;5.350;2023-07-31T01:33:54;17.50;99.90
18753;DHT22;9505;50.882;5.350;2023-07-31T01:36:21;17.50;99.90
18753;DHT22;9505;50.882;5.350;2023-07-31T01:38:47;17.50;99.90
18753;DHT22;9505;50.882;5.350;2023-07-31T01:41:12;17.60;99.90
18753;DHT22;9505;50.882;5.350;2023-07-31T01:43:39;17.60;99.90
18753;DHT22;9505;50.882;5.350;2023-07-31T01:46:04;17.60;99.90
18753;DHT22;9505;50.882;5.350;2023-07-31T01:48:30;17.60;99.90
18753;DHT22;9505;50.882;5.350;2023-07-31T01:51:01;17.60;99.90
18753;DHT22;9505;50.882;5.350;2023-07-31T01:53:27;17.60;99.90
18753;DHT22;9505;50.882;5.350;2023-07-31T01:55:52;17.50;99.90
18753;DHT22;9505;50.882;5.350;2023-07-31T01:58:18;17.50;99.90
18753;DHT22;9505;50.882;5.350;2023-07-31T02:00:44;17.40;99.90
18753;DHT22;9505;50.882;5.350;2023-07-31T02:03:09;17.50;99.90
18753;DHT22;9505;50.882;5.350;2023-07-31T02:05:35;17.60;99.90
18753;DHT22;9505;50.882;5.350;2023-07-31T02:08:00;17.50;99.90
18753;DHT22;9505;50.882;5.350;2023-07-31T02:10:26;17.50;99.90
18753;DHT22;9505;50.882;5.350;2023-07-31T02:12:52;17.60;99.90
18753;DHT22;9505;50.882;5.350;2023-07-31T02:15:17;17.50;99.90
18753;DHT22;9505;50.882;5.350;2023-07-31T02:17:43;17.40;99.90
18753;DHT22;9505;50.882;5.350;2023-07-31T02:20:09;17.40;99.90
18753;DHT22;9505;50.882;5.350;2023-07-31T02:22:35;17.30;99.90
18753;DHT22;9505;50.882;5.350;2023-07-31T02:25:01;17.40;99.90
18753;DHT22;9505;50.882;5.350;2023-07-31T02:27:26;17.40;99.90
18753;DHT22;9505;50.882;5.350;2023-07-31T02:29:53;17.40;99.90
18753;DHT22;9505;50.882;5.350;2023-07-31T02:32:19;17.40;99.90
18753;DHT22;9505;50.882;5.350;2023-07-31T02:34:45;17.40;99.90
18753;DHT22;9505;50.882;5.350;2023-07-31T02:37:10;17.40;99.90
18753;DHT22;9505;50.882;5.350;2023-07-31T02:39:36;17.40;99.90
18753;DHT22;9505;50.882;5.350;2023-07-31T02:42:02;17.40;99.90
18753;DHT22;9505;50.882;5.350;2023-07-31T02:44:27;17.40;99.90
18753;DHT22;9505;50.882;5.350;2023-07-31T02:46:53;17.50;99.90
18753;DHT22;9505;50.882;5.350;2023-07-31T02:49:18;17.50;99.90
18753;DHT22;9505;50.882;5.350;2023-07-31T02:51:44;17.50;99.90
18753;DHT22;9505;50.882;5.350;2023-07-31T02:54:10;17.60;99.90
18753;DHT22;9505;50.882;5.350;2023-07-31T02:56:35;17.70;99.90
18753;DHT22;9505;50.882;5.350;2023-07-31T02:59:01;17.60;99.90
18753;DHT22;9505;50.882;5.350;2023-07-31T03:01:26;17.70;99.90
18753;DHT22;9505;50.882;5.350;2023-07-31T03:03:52;17.70;99.90
18753;DHT22;9505;50.882;5.350;2023-07-31T03:06:18;17.70;99.90
18753;DHT22;9505;50.882;5.350;2023-07-31T03:08:44;17.80;99.90
18753;DHT22;9505;50.882;5.350;2023-07-31T03:11:09;17.80;99.90
18753;DHT22;9505;50.882;5.350;2023-07-31T03:13:35;17.70;99.90
18753;DHT22;9505;50.882;5.350;2023-07-31T03:16:00;17.70;99.90
18753;DHT22;9505;50.882;5.350;2023-07-31T03:18:26;17.70;99.90
18753;DHT22;9505;50.882;5.350;2023-07-31T03:20:52;17.70;99.90
18753;DHT22;9505;50.882;5.350;2023-07-31T03:23:17;17.60;99.90
18753;DHT22;9505;50.882;5.350;2023-07-31T03:25:56;17.50;99.90
18753;DHT22;9505;50.882;5.350;2023-07-31T03:28:22;17.60;99.90
18753;DHT22;9505;50.882;5.350;2023-07-31T03:30:48;17.70;99.90
18753;DHT22;9505;50.882;5.350;2023-07-31T03:33:14;17.70;99.90
18753;DHT22;9505;50.882;5.350;2023-07-31T03:35:39;17.70;99.90
18753;DHT22;9505;50.882;5.350;2023-07-31T03:38:05;17.70;99.90
18753;DHT22;9505;50.882;5.350;2023-07-31T03:40:30;17.60;99.90
18753;DHT22;9505;50.882;5.350;2023-07-31T03:42:56;17.60;99.90
18753;DHT22;9505;50.882;5.350;2023-07-31T03:45:22;17.60;99.90
18753;DHT22;9505;50.882;5.350;2023-07-31T03:47:47;17.70;99.90
18753;DHT22;9505;50.882;5.350;2023-07-31T03:50:13;17.70;99.90
18753;DHT22;9505;50.882;5.350;2023-07-31T03:52:39;17.70;99.90
18753;DHT22;9505;50.882;5.350;2023-07-31T03:55:05;17.70;99.90
18753;DHT22;9505;50.882;5.350;2023-07-31T03:57:30;17.70;99.90
18753;DHT22;9505;50.882;5.350;2023-07-31T03:59:58;17.70;99.90
18753;DHT22;9505;50.882;5.350;2023-07-31T04:02:23;17.70;99.90
18753;DHT22;9505;50.882;5.350;2023-07-31T04:04:49;17.80;99.90
18753;DHT22;9505;50.882;5.350;2023-07-31T04:07:15;17.70;99.90
18753;DHT22;9505;50.882;5.350;2023-07-31T04:09:40;17.60;99.90
18753;DHT22;9505;50.882;5.350;2023-07-31T04:12:06;17.70;99.90
18753;DHT22;9505;50.882;5.350;2023-07-31T04:14:32;17.70;99.90
18753;DHT22;9505;50.882;5.350;2023-07-31T04:16:58;17.60;99.90
18753;DHT22;9505;50.882;5.350;2023-07-31T04:19:23;17.70;99.90
18753;DHT22;9505;50.882;5.350;2023-07-31T04:21:49;17.70;99.90
18753;DHT22;9505;50.882;5.350;2023-07-31T04:24:15;17.70;99.90
18753;DHT22;9505;50.882;5.350;2023-07-31T04:26:40;17.70;99.90
18753;DHT22;9505;50.882;5.350;2023-07-31T04:29:06;17.80;99.90
18753;DHT22;9505;50.882;5.350;2023-07-31T04:31:33;17.80;99.90
18753;DHT22;9505;50.882;5.350;2023-07-31T04:33:59;17.70;99.90
18753;DHT22;9505;50.882;5.350;2023-07-31T04:36:24;17.70;99.90
18753;DHT22;9505;50.882;5.350;2023-07-31T04:38:50;17.60;99.90
18753;DHT22;9505;50.882;5.350;2023-07-31T04:41:16;17.70;99.90
18753;DHT22;9505;50.882;5.350;2023-07-31T04:43:41;17.80;99.90
18753;DHT22;9505;50.882;5.350;2023-07-31T04:46:07;17.70;99.90
18753;DHT22;9505;50.882;5.350;2023-07-31T04:48:33;17.70;99.90
18753;DHT22;9505;50.882;5.350;2023-07-31T04:50:58;17.70;99.90
18753;DHT22;9505;50.882;5.350;2023-07-31T04:53:24;17.60;99.90
18753;DHT22;9505;50.882;5.350;2023-07-31T04:55:49;17.40;99.90
18753;DHT22;9505;50.882;5.350;2023-07-31T04:58:15;17.20;99.90
18753;DHT22;9505;50.882;5.350;2023-07-31T05:00:41;17.10;99.90
18753;DHT22;9505;50.882;5.350;2023-07-31T05:03:06;17.00;99.90
18753;DHT22;9505;50.882;5.350;2023-07-31T05:05:32;17.00;99.90
18753;DHT22;9505;50.882;5.350;2023-07-31T05:07:58;16.90;99.90
18753;DHT22;9505;50.882;5.350;2023-07-31T05:10:23;16.90;99.90
18753;DHT22;9505;50.882;5.350;2023-07-31T05:12:49;16.80;99.90
18753;DHT22;9505;50.882;5.350;2023-07-31T05:15:15;16.80;99.90
18753;DHT22;9505;50.882;5.350;2023-07-31T05:17:40;16.80;99.90
18753;DHT22;9505;50.882;5.350;2023-07-31T05:20:07;16.80;99.90
18753;DHT22;9505;50.882;5.350;2023-07-31T05:22:32;16.90;99.90
18753;DHT22;9505;50.882;5.350;2023-07-31T05:24:58;16.90;99.90
18753;DHT22;9505;50.882;5.350;2023-07-31T05:27:24;16.90;99.90
18753;DHT22;9505;50.882;5.350;2023-07-31T05:29:49;17.00;99.90
18753;DHT22;9505;50.882;5.350;2023-07-31T05:32:15;16.90;99.90
18753;DHT22;9505;50.882;5.350;2023-07-31T05:34:41;16.90;99.90
18753;DHT22;9505;50.882;5.350;2023-07-31T05:37:06;17.00;99.90
18753;DHT22;9505;50.882;5.350;2023-07-31T05:39:32;17.00;99.90
18753;DHT22;9505;50.882;5.350;2023-07-31T05:41:57;17.10;99.90
18753;DHT22;9505;50.882;5.350;2023-07-31T05:44:23;17.10;99.90
18753;DHT22;9505;50.882;5.350;2023-07-31T05:46:49;17.10;99.90
18753;DHT22;9505;50.882;5.350;2023-07-31T05:49:14;17.00;99.90
18753;DHT22;9505;50.882;5.350;2023-07-31T05:51:40;17.10;99.90
18753;DHT22;9505;50.882;5.350;2023-07-31T05:54:05;17.00;99.90
18753;DHT22;9505;50.882;5.350;2023-07-31T05:56:31;17.10;99.90
18753;DHT22;9505;50.882;5.350;2023-07-31T05:58:58;17.10;99.90
18753;DHT22;9505;50.882;5.350;2023-07-31T06:01:24;17.10;99.90
18753;DHT22;9505;50.882;5.350;2023-07-31T06:03:50;17.00;99.90
18753;DHT22;9505;50.882;5.350;2023-07-31T06:06:15;17.00;99.90
18753;DHT22;9505;50.882;5.350;2023-07-31T06:08:41;16.90;99.90
18753;DHT22;9505;50.882;5.350;2023-07-31T06:11:07;16.90;99.90
18753;DHT22;9505;50.882;5.350;2023-07-31T06:13:34;16.80;99.90
18753;DHT22;9505;50.882;5.350;2023-07-31T06:16:00;16.80;99.90
18753;DHT22;9505;50.882;5.350;2023-07-31T06:18:31;16.80;99.90
18753;DHT22;9505;50.882;5.350;2023-07-31T06:20:56;16.70;99.90
18753;DHT22;9505;50.882;5.350;2023-07-31T06:23:22;16.70;99.90
18753;DHT22;9505;50.882;5.350;2023-07-31T06:25:48;16.70;99.90
18753;DHT22;9505;50.882;5.350;2023-07-31T06:28:13;16.60;99.90
18753;DHT22;9505;50.882;5.350;2023-07-31T06:30:39;16.60;99.90
18753;DHT22;9505;50.882;5.350;2023-07-31T06:33:05;16.50;99.90
18753;DHT22;9505;50.882;5.350;2023-07-31T06:35:30;16.60;99.90
18753;DHT22;9505;50.882;5.350;2023-07-31T06:37:56;16.60;99.90
18753;DHT22;9505;50.882;5.350;2023-07-31T06:40:22;16.60;99.90
18753;DHT22;9505;50.882;5.350;2023-07-31T06:42:48;16.60;99.90
18753;DHT22;9505;50.882;5.350;2023-07-31T06:45:13;16.60;99.90
18753;DHT22;9505;50.882;5.350;2023-07-31T06:47:39;16.60;99.90
18753;DHT22;9505;50.882;5.350;2023-07-31T06:50:05;16.60;99.90
18753;DHT22;9505;50.882;5.350;2023-07-31T06:52:31;16.70;99.90
18753;DHT22;9505;50.882;5.350;2023-07-31T06:55:14;16.70;99.90
18753;DHT22;9505;50.882;5.350;2023-07-31T06:57:42;16.70;99.90
18753;DHT22;9505;50.882;5.350;2023-07-31T07:00:08;16.60;99.90
18753;DHT22;9505;50.882;5.350;2023-07-31T07:02:33;16.50;99.90
18753;DHT22;9505;50.882;5.350;2023-07-31T07:04:59;16.60;99.90
18753;DHT22;9505;50.882;5.350;2023-07-31T07:07:25;16.60;99.90
18753;DHT22;9505;50.882;5.350;2023-07-31T07:09:50;16.70;99.90
18753;DHT22;9505;50.882;5.350;2023-07-31T07:12:16;16.80;99.90
18753;DHT22;9505;50.882;5.350;2023-07-31T07:14:42;16.90;99.90
18753;DHT22;9505;50.882;5.350;2023-07-31T07:17:07;17.00;99.90
18753;DHT22;9505;50.882;5.350;2023-07-31T07:19:33;17.00;99.90
18753;DHT22;9505;50.882;5.350;2023-07-31T07:21:58;17.00;99.90
18753;DHT22;9505;50.882;5.350;2023-07-31T07:24:27;17.00;99.90
18753;DHT22;9505;50.882;5.350;2023-07-31T07:26:53;17.00;99.90
18753;DHT22;9505;50.882;5.350;2023-07-31T07:29:18;17.10;99.90
18753;DHT22;9505;50.882;5.350;2023-07-31T07:31:44;17.20;99.90
18753;DHT22;9505;50.882;5.350;2023-07-31T07:34:09;17.10;99.90
18753;DHT22;9505;50.882;5.350;2023-07-31T07:36:35;17.20;99.90
18753;DHT22;9505;50.882;5.350;2023-07-31T07:39:01;17.40;99.90
18753;DHT22;9505;50.882;5.350;2023-07-31T07:41:26;17.50;99.90
18753;DHT22;9505;50.882;5.350;2023-07-31T07:43:52;17.40;99.90
18753;DHT22;9505;50.882;5.350;2023-07-31T07:46:17;17.50;99.90
18753;DHT22;9505;50.882;5.350;2023-07-31T07:48:43;17.40;99.90
18753;DHT22;9505;50.882;5.350;2023-07-31T07:51:09;17.40;99.90
18753;DHT22;9505;50.882;5.350;2023-07-31T07:53:34;17.40;99.90
18753;DHT22;9505;50.882;5.350;2023-07-31T07:56:00;17.30;99.90
18753;DHT22;9505;50.882;5.350;2023-07-31T07:58:25;17.30;99.90
18753;DHT22;9505;50.882;5.350;2023-07-31T08:00:51;17.40;99.90
18753;DHT22;9505;50.882;5.350;2023-07-31T08:03:17;17.30;99.90
18753;DHT22;9505;50.882;5.350;2023-07-31T08:05:44;17.40;99.90
18753;DHT22;9505;50.882;5.350;2023-07-31T08:08:17;17.50;99.90
18753;DHT22;9505;50.882;5.350;2023-07-31T08:10:43;17.40;99.90
18753;DHT22;9505;50.882;5.350;2023-07-31T08:13:12;17.40;99.90
18753;DHT22;9505;50.882;5.350;2023-07-31T08:15:39;17.50;99.90
18753;DHT22;9505;50.882;5.350;2023-07-31T08:18:06;17.50;99.90
18753;DHT22;9505;50.882;5.350;2023-07-31T08:20:31;17.50;99.90
18753;DHT22;9505;50.882;5.350;2023-07-31T08:22:57;17.40;99.90
18753;DHT22;9505;50.882;5.350;2023-07-31T08:25:23;17.60;99.90
18753;DHT22;9505;50.882;5.350;2023-07-31T08:27:49;17.60;99.90
18753;DHT22;9505;50.882;5.350;2023-07-31T08:30:14;17.50;99.90
18753;DHT22;9505;50.882;5.350;2023-07-31T08:32:40;17.50;99.90
18753;DHT22;9505;50.882;5.350;2023-07-31T08:35:06;17.70;99.90
18753;DHT22;9505;50.882;5.350;2023-07-31T08:37:31;17.60;99.90
18753;DHT22;9505;50.882;5.350;2023-07-31T08:39:57;17.50;99.90
18753;DHT22;9505;50.882;5.350;2023-07-31T08:42:23;17.50;99.90
18753;DHT22;9505;50.882;5.350;2023-07-31T08:44:51;17.50;99.90
18753;DHT22;9505;50.882;5.350;2023-07-31T08:47:19;17.70;99.90
18753;DHT22;9505;50.882;5.350;2023-07-31T08:49:46;17.80;99.90
18753;DHT22;9505;50.882;5.350;2023-07-31T08:52:12;17.80;99.90
18753;DHT22;9505;50.882;5.350;2023-07-31T08:54:38;17.90;99.90
18753;DHT22;9505;50.882;5.350;2023-07-31T08:57:04;18.10;99.90
18753;DHT22;9505;50.882;5.350;2023-07-31T08:59:31;18.00;99.90
18753;DHT22;9505;50.882;5.350;2023-07-31T09:01:59;18.00;99.90
18753;DHT22;9505;50.882;5.350;2023-07-31T09:04:29;18.00;99.90
18753;DHT22;9505;50.882;5.350;2023-07-31T09:06:59;18.00;99.90
18753;DHT22;9505;50.882;5.350;2023-07-31T09:09:25;17.90;99.90
18753;DHT22;9505;50.882;5.350;2023-07-31T09:11:51;17.80;99.90
18753;DHT22;9505;50.882;5.350;2023-07-31T09:14:17;17.90;99.90
18753;DHT22;9505;50.882;5.350;2023-07-31T09:16:57;18.30;99.90
18753;DHT22;9505;50.882;5.350;2023-07-31T09:19:32;18.30;99.90
18753;DHT22;9505;50.882;5.350;2023-07-31T09:21:59;18.40;99.90
18753;DHT22;9505;50.882;5.350;2023-07-31T09:24:29;18.30;99.90
18753;DHT22;9505;50.882;5.350;2023-07-31T09:26:56;18.20;99.90
18753;DHT22;9505;50.882;5.350;2023-07-31T09:29:23;18.20;99.90
18753;DHT22;9505;50.882;5.350;2023-07-31T09:31:48;17.90;99.90
18753;DHT22;9505;50.882;5.350;2023-07-31T09:34:14;18.00;99.90
18753;DHT22;9505;50.882;5.350;2023-07-31T09:36:41;18.10;99.90
18753;DHT22;9505;50.882;5.350;2023-07-31T09:39:12;18.00;99.90
18753;DHT22;9505;50.882;5.350;2023-07-31T09:41:39;18.20;99.90
18753;DHT22;9505;50.882;5.350;2023-07-31T09:44:06;18.40;99.90
18753;DHT22;9505;50.882;5.350;2023-07-31T09:46:31;18.60;99.90
18753;DHT22;9505;50.882;5.350;2023-07-31T09:49:13;18.50;99.90
18753;DHT22;9505;50.882;5.350;2023-07-31T09:51:40;18.60;99.90
18753;DHT22;9505;50.882;5.350;2023-07-31T09:56:43;18.80;99.90
18753;DHT22;9505;50.882;5.350;2023-07-31T09:59:11;18.40;99.90
18753;DHT22;9505;50.882;5.350;2023-07-31T10:01:39;18.20;99.90
18753;DHT22;9505;50.882;5.350;2023-07-31T10:04:05;18.40;99.90
18753;DHT22;9505;50.882;5.350;2023-07-31T10:06:34;18.50;99.90
18753;DHT22;9505;50.882;5.350;2023-07-31T10:09:02;18.70;99.90
18753;DHT22;9505;50.882;5.350;2023-07-31T10:11:30;18.50;99.90
18753;DHT22;9505;50.882;5.350;2023-07-31T10:13:59;18.40;99.90
18753;DHT22;9505;50.882;5.350;2023-07-31T10:16:24;18.80;99.90
18753;DHT22;9505;50.882;5.350;2023-07-31T10:18:51;19.00;99.90
18753;DHT22;9505;50.882;5.350;2023-07-31T10:21:18;18.90;99.90
18753;DHT22;9505;50.882;5.350;2023-07-31T10:23:44;18.90;99.90
18753;DHT22;9505;50.882;5.350;2023-07-31T10:26:10;19.30;99.90
18753;DHT22;9505;50.882;5.350;2023-07-31T10:28:37;19.50;99.90
18753;DHT22;9505;50.882;5.350;2023-07-31T10:31:04;19.60;99.90
18753;DHT22;9505;50.882;5.350;2023-07-31T10:33:30;19.40;99.90
18753;DHT22;9505;50.882;5.350;2023-07-31T10:36:17;19.30;99.90
18753;DHT22;9505;50.882;5.350;2023-07-31T10:38:43;19.20;99.90
18753;DHT22;9505;50.882;5.350;2023-07-31T10:41:09;19.00;99.90
18753;DHT22;9505;50.882;5.350;2023-07-31T10:43:39;18.90;99.90
18753;DHT22;9505;50.882;5.350;2023-07-31T10:46:09;18.90;99.90
18753;DHT22;9505;50.882;5.350;2023-07-31T10:48:38;19.00;99.90
18753;DHT22;9505;50.882;5.350;2023-07-31T10:51:12;19.10;99.90
18753;DHT22;9505;50.882;5.350;2023-07-31T10:53:39;19.20;99.90
18753;DHT22;9505;50.882;5.350;2023-07-31T10:56:08;19.00;99.90
18753;DHT22;9505;50.882;5.350;2023-07-31T10:58:36;18.90;99.90
18753;DHT22;9505;50.882;5.350;2023-07-31T11:01:03;18.60;99.90
18753;DHT22;9505;50.882;5.350;2023-07-31T11:03:42;18.40;99.90
18753;DHT22;9505;50.882;5.350;2023-07-31T11:06:08;18.50;99.90
18753;DHT22;9505;50.882;5.350;2023-07-31T11:08:41;18.80;99.90
18753;DHT22;9505;50.882;5.350;2023-07-31T11:11:07;19.10;99.90
18753;DHT22;9505;50.882;5.350;2023-07-31T11:13:44;19.50;99.90
18753;DHT22;9505;50.882;5.350;2023-07-31T11:16:13;19.60;99.90
18753;DHT22;9505;50.882;5.350;2023-07-31T11:18:43;19.70;99.90
18753;DHT22;9505;50.882;5.350;2023-07-31T11:21:16;20.00;99.90
18753;DHT22;9505;50.882;5.350;2023-07-31T11:23:47;20.00;99.90
18753;DHT22;9505;50.882;5.350;2023-07-31T11:26:13;19.80;99.90
18753;DHT22;9505;50.882;5.350;2023-07-31T11:28:38;19.60;99.90
18753;DHT22;9505;50.882;5.350;2023-07-31T11:31:04;19.60;99.90
18753;DHT22;9505;50.882;5.350;2023-07-31T11:33:30;19.50;99.90
18753;DHT22;9505;50.882;5.350;2023-07-31T11:35:56;19.60;99.90
18753;DHT22;9505;50.882;5.350;2023-07-31T11:38:28;19.70;99.90
18753;DHT22;9505;50.882;5.350;2023-07-31T11:41:02;19.70;99.90
18753;DHT22;9505;50.882;5.350;2023-07-31T11:43:29;19.80;99.90
18753;DHT22;9505;50.882;5.350;2023-07-31T11:45:56;20.00;99.90
18753;DHT22;9505;50.882;5.350;2023-07-31T11:50:53;19.70;99.90
18753;DHT22;9505;50.882;5.350;2023-07-31T11:54:03;19.90;99.90
18753;DHT22;9505;50.882;5.350;2023-07-31T11:56:13;20.20;99.90
18753;DHT22;9505;50.882;5.350;2023-07-31T11:58:40;20.30;99.90
18753;DHT22;9505;50.882;5.350;2023-07-31T12:01:08;20.50;99.90
18753;DHT22;9505;50.882;5.350;2023-07-31T12:03:34;20.70;99.90
18753;DHT22;9505;50.882;5.350;2023-07-31T12:06:00;21.30;99.90
18753;DHT22;9505;50.882;5.350;2023-07-31T12:08:26;21.60;99.90
18753;DHT22;9505;50.882;5.350;2023-07-31T12:10:53;21.60;99.90
18753;DHT22;9505;50.882;5.350;2023-07-31T12:13:23;21.70;99.90
18753;DHT22;9505;50.882;5.350;2023-07-31T12:15:54;21.60;99.90
18753;DHT22;9505;50.882;5.350;2023-07-31T12:18:20;21.80;99.90
18753;DHT22;9505;50.882;5.350;2023-07-31T12:20:48;21.90;99.90
18753;DHT22;9505;50.882;5.350;2023-07-31T12:23:17;21.50;99.90
18753;DHT22;9505;50.882;5.350;2023-07-31T12:25:43;21.10;99.90
18753;DHT22;9505;50.882;5.350;2023-07-31T12:28:10;20.90;99.90
18753;DHT22;9505;50.882;5.350;2023-07-31T12:30:40;20.80;99.90
18753;DHT22;9505;50.882;5.350;2023-07-31T12:33:12;20.80;99.90
18753;DHT22;9505;50.882;5.350;2023-07-31T12:35:40;21.10;99.90
18753;DHT22;9505;50.882;5.350;2023-07-31T12:38:06;21.50;99.90
18753;DHT22;9505;50.882;5.350;2023-07-31T12:40:32;21.80;99.90
18753;DHT22;9505;50.882;5.350;2023-07-31T12:43:00;22.20;99.90
18753;DHT22;9505;50.882;5.350;2023-07-31T12:45:27;22.30;99.90
18753;DHT22;9505;50.882;5.350;2023-07-31T12:47:52;22.20;99.90
18753;DHT22;9505;50.882;5.350;2023-07-31T12:50:18;21.90;99.90
18753;DHT22;9505;50.882;5.350;2023-07-31T12:52:44;21.60;99.90
18753;DHT22;9505;50.882;5.350;2023-07-31T12:55:09;21.20;99.90
18753;DHT22;9505;50.882;5.350;2023-07-31T12:57:36;21.00;99.90
18753;DHT22;9505;50.882;5.350;2023-07-31T13:00:02;21.00;99.90
18753;DHT22;9505;50.882;5.350;2023-07-31T13:02:28;20.90;99.90
18753;DHT22;9505;50.882;5.350;2023-07-31T13:04:54;20.70;99.90
18753;DHT22;9505;50.882;5.350;2023-07-31T13:07:22;20.70;99.90
18753;DHT22;9505;50.882;5.350;2023-07-31T13:09:48;20.80;99.90
18753;DHT22;9505;50.882;5.350;2023-07-31T13:12:13;20.70;99.90
18753;DHT22;9505;50.882;5.350;2023-07-31T13:14:39;20.60;99.90
18753;DHT22;9505;50.882;5.350;2023-07-31T13:17:05;20.50;99.90
18753;DHT22;9505;50.882;5.350;2023-07-31T13:19:30;20.50;99.90
18753;DHT22;9505;50.882;5.350;2023-07-31T13:21:56;20.60;99.90
18753;DHT22;9505;50.882;5.350;2023-07-31T13:24:22;20.50;99.90
18753;DHT22;9505;50.882;5.350;2023-07-31T13:26:47;20.40;99.90
18753;DHT22;9505;50.882;5.350;2023-07-31T13:29:13;20.40;99.90
18753;DHT22;9505;50.882;5.350;2023-07-31T13:31:38;20.40;99.90
18753;DHT22;9505;50.882;5.350;2023-07-31T13:34:04;20.50;99.90
18753;DHT22;9505;50.882;5.350;2023-07-31T13:36:30;20.50;99.90
18753;DHT22;9505;50.882;5.350;2023-07-31T13:38:55;20.50;99.90
18753;DHT22;9505;50.882;5.350;2023-07-31T13:41:21;20.80;99.90
18753;DHT22;9505;50.882;5.350;2023-07-31T13:43:47;21.00;99.90
18753;DHT22;9505;50.882;5.350;2023-07-31T13:46:12;21.00;99.90
18753;DHT22;9505;50.882;5.350;2023-07-31T13:48:38;21.00;99.90
18753;DHT22;9505;50.882;5.350;2023-07-31T13:51:04;20.80;99.90
18753;DHT22;9505;50.882;5.350;2023-07-31T13:53:30;20.80;99.90
18753;DHT22;9505;50.882;5.350;2023-07-31T13:55:56;20.70;99.90
18753;DHT22;9505;50.882;5.350;2023-07-31T13:58:21;20.60;99.90
18753;DHT22;9505;50.882;5.350;2023-07-31T14:00:47;20.50;99.90
18753;DHT22;9505;50.882;5.350;2023-07-31T14:03:13;20.40;99.90
18753;DHT22;9505;50.882;5.350;2023-07-31T14:05:38;20.30;99.90
18753;DHT22;9505;50.882;5.350;2023-07-31T14:08:04;20.30;99.90
18753;DHT22;9505;50.882;5.350;2023-07-31T14:10:29;20.30;99.90
18753;DHT22;9505;50.882;5.350;2023-07-31T14:12:55;20.20;99.90
18753;DHT22;9505;50.882;5.350;2023-07-31T14:15:21;20.30;99.90
18753;DHT22;9505;50.882;5.350;2023-07-31T14:17:46;20.30;99.90
18753;DHT22;9505;50.882;5.350;2023-07-31T14:20:12;20.20;99.90
18753;DHT22;9505;50.882;5.350;2023-07-31T14:22:38;20.20;99.90
18753;DHT22;9505;50.882;5.350;2023-07-31T14:25:04;20.00;99.90
18753;DHT22;9505;50.882;5.350;2023-07-31T14:27:30;19.80;99.90
18753;DHT22;9505;50.882;5.350;2023-07-31T14:29:55;19.80;99.90
18753;DHT22;9505;50.882;5.350;2023-07-31T14:32:22;19.60;99.90
18753;DHT22;9505;50.882;5.350;2023-07-31T14:34:50;19.60;99.90
18753;DHT22;9505;50.882;5.350;2023-07-31T14:37:16;19.40;99.90
18753;DHT22;9505;50.882;5.350;2023-07-31T14:39:42;19.40;99.90
18753;DHT22;9505;50.882;5.350;2023-07-31T14:42:08;19.30;99.90
18753;DHT22;9505;50.882;5.350;2023-07-31T14:44:34;19.20;99.90
18753;DHT22;9505;50.882;5.350;2023-07-31T14:47:00;19.00;99.90
18753;DHT22;9505;50.882;5.350;2023-07-31T14:49:26;18.90;99.90
18753;DHT22;9505;50.882;5.350;2023-07-31T14:51:53;18.90;99.90
18753;DHT22;9505;50.882;5.350;2023-07-31T14:54:19;19.00;99.90
18753;DHT22;9505;50.882;5.350;2023-07-31T14:56:45;19.10;99.90
18753;DHT22;9505;50.882;5.350;2023-07-31T14:59:11;18.90;99.90
18753;DHT22;9505;50.882;5.350;2023-07-31T15:01:37;18.80;99.90
18753;DHT22;9505;50.882;5.350;2023-07-31T15:04:03;18.90;99.90
18753;DHT22;9505;50.882;5.350;2023-07-31T15:06:29;18.80;99.90
18753;DHT22;9505;50.882;5.350;2023-07-31T15:08:54;18.60;99.90
18753;DHT22;9505;50.882;5.350;2023-07-31T15:11:20;18.40;99.90
18753;DHT22;9505;50.882;5.350;2023-07-31T15:13:45;18.20;99.90
18753;DHT22;9505;50.882;5.350;2023-07-31T15:16:11;18.20;99.90
18753;DHT22;9505;50.882;5.350;2023-07-31T15:18:37;18.20;99.90
18753;DHT22;9505;50.882;5.350;2023-07-31T15:21:03;18.30;99.90
18753;DHT22;9505;50.882;5.350;2023-07-31T15:23:29;18.40;99.90
18753;DHT22;9505;50.882;5.350;2023-07-31T15:25:55;18.40;99.90
18753;DHT22;9505;50.882;5.350;2023-07-31T15:28:21;18.50;99.90
18753;DHT22;9505;50.882;5.350;2023-07-31T15:30:47;18.40;99.90
18753;DHT22;9505;50.882;5.350;2023-07-31T15:33:13;18.40;99.90
18753;DHT22;9505;50.882;5.350;2023-07-31T15:35:38;18.30;99.90
18753;DHT22;9505;50.882;5.350;2023-07-31T15:38:04;18.20;99.90
18753;DHT22;9505;50.882;5.350;2023-07-31T15:40:30;18.20;99.90
18753;DHT22;9505;50.882;5.350;2023-07-31T15:42:55;18.30;99.90
18753;DHT22;9505;50.882;5.350;2023-07-31T15:45:21;18.30;99.90
18753;DHT22;9505;50.882;5.350;2023-07-31T15:47:47;18.30;99.90
18753;DHT22;9505;50.882;5.350;2023-07-31T15:50:13;18.40;99.90